Time;durP1;ratioP1;P1;durP2;ratioP2;P2;SDS_P1;SDS_P2;PMS_P1;PMS_P2;Temp;Humidity;BMP_temperature;BMP_pressure;BME280_temperature;BME280_humidity;BME280_pressure;Samples;Min_cycle;Max_cycle;Signal;HPM_P1;HPM_P2
2023/05/01 00:00:10;;;;;;;13.35;8.85;;;8.20;99.90;;;;;;5077475;28;21232;-69
2023/05/01 00:02:36;;;;;;;16.30;9.45;;;8.10;99.90;;;;;;5090569;28;20051;-70
2023/05/01 00:05:02;;;;;;;22.13;11.38;;;8.10;99.90;;;;;;5091604;28;20044;-70
2023/05/01 00:07:29;;;;;;;21.05;8.77;;;8.10;99.90;;;;;;5093521;28;20509;-70
2023/05/01 00:09:58;;;;;;;13.60;9.85;;;8.10;99.90;;;;;;5088755;28;20066;-70
2023/05/01 00:12:24;;;;;;;18.05;9.95;;;8.00;99.90;;;;;;5087032;28;20492;-70
2023/05/01 00:14:53;;;;;;;12.82;9.20;;;8.00;99.90;;;;;;5107507;27;20048;-70
2023/05/01 00:17:18;;;;;;;18.30;10.43;;;8.00;99.90;;;;;;5084402;28;20036;-70
2023/05/01 00:19:45;;;;;;;17.05;9.57;;;7.90;99.90;;;;;;5087180;28;20412;-70
2023/05/01 00:22:10;;;;;;;17.08;9.65;;;7.90;99.90;;;;;;5090079;28;20544;-70
2023/05/01 00:24:36;;;;;;;15.60;10.43;;;7.90;99.90;;;;;;5081622;28;20048;-70
2023/05/01 00:27:02;;;;;;;14.30;8.70;;;7.90;99.90;;;;;;5073307;28;20520;-70
2023/05/01 00:29:28;;;;;;;15.77;9.32;;;7.90;99.90;;;;;;5079379;28;20042;-70
2023/05/01 00:31:54;;;;;;;27.60;9.65;;;7.90;99.90;;;;;;5079022;28;20435;-70
2023/05/01 00:34:20;;;;;;;13.45;9.35;;;7.80;99.90;;;;;;5085193;28;20063;-70
2023/05/01 00:36:46;;;;;;;17.90;9.40;;;7.80;99.90;;;;;;5080669;28;20106;-70
2023/05/01 00:39:11;;;;;;;14.82;10.07;;;7.80;99.90;;;;;;5078041;28;20040;-70
2023/05/01 00:41:37;;;;;;;14.25;9.02;;;7.80;99.90;;;;;;5077640;28;20040;-70
2023/05/01 00:44:03;;;;;;;11.88;8.60;;;7.80;99.90;;;;;;5088681;28;20046;-70
2023/05/01 00:46:30;;;;;;;35.88;10.90;;;7.70;99.90;;;;;;5087348;28;20097;-70
2023/05/01 00:48:57;;;;;;;14.68;9.18;;;7.70;99.90;;;;;;5079076;28;20056;-70
2023/05/01 00:51:26;;;;;;;15.93;10.13;;;7.70;99.90;;;;;;5084166;28;20066;-70
2023/05/01 00:53:51;;;;;;;15.98;9.40;;;7.70;99.90;;;;;;5089518;28;20044;-70
2023/05/01 00:56:17;;;;;;;14.13;9.00;;;7.70;99.90;;;;;;5081229;28;20052;-70
2023/05/01 00:58:48;;;;;;;14.93;9.43;;;7.60;99.90;;;;;;5090195;28;20059;-70
2023/05/01 01:01:15;;;;;;;26.20;12.05;;;7.60;99.90;;;;;;5084211;28;20036;-70
2023/05/01 01:03:40;;;;;;;20.15;11.60;;;7.60;99.90;;;;;;5086871;28;20048;-70
2023/05/01 01:06:19;;;;;;;15.70;11.35;;;7.50;99.90;;;;;;5083836;28;20077;-70
2023/05/01 01:09:01;;;;;;;26.15;11.65;;;7.50;99.90;;;;;;5079647;28;20494;-70
2023/05/01 01:11:53;;;;;;;17.77;11.40;;;7.50;99.90;;;;;;5073937;28;20044;-70
2023/05/01 01:14:26;;;;;;;19.23;12.68;;;7.40;99.90;;;;;;5078000;28;20044;-70
2023/05/01 01:17:05;;;;;;;13.82;9.88;;;7.40;99.90;;;;;;5072511;28;20036;-70
2023/05/01 01:19:52;;;;;;;24.33;11.63;;;7.30;99.90;;;;;;5065473;28;20050;-70
2023/05/01 01:22:23;;;;;;;15.43;10.80;;;7.30;99.90;;;;;;5075165;28;20596;-70
2023/05/01 01:24:57;;;;;;;26.08;10.75;;;7.30;99.90;;;;;;5076877;28;20044;-70
2023/05/01 01:27:38;;;;;;;16.60;10.80;;;7.20;99.90;;;;;;5083082;28;20043;-70
2023/05/01 01:30:22;;;;;;;17.15;11.18;;;7.30;99.90;;;;;;5109070;27;20151;-70
2023/05/01 01:33:16;;;;;;;15.68;9.70;;;7.30;99.90;;;;;;5077835;28;20798;-70
2023/05/01 01:35:52;;;;;;;12.65;9.60;;;7.30;99.90;;;;;;5076554;28;20083;-70
2023/05/01 01:38:35;;;;;;;13.30;9.10;;;7.20;99.90;;;;;;5075834;28;20047;-70
2023/05/01 01:41:11;;;;;;;18.70;9.90;;;7.20;99.90;;;;;;5120505;27;20079;-70
2023/05/01 01:43:47;;;;;;;17.85;9.60;;;7.20;99.90;;;;;;5088446;28;20134;-70
2023/05/01 01:46:16;;;;;;;14.60;10.93;;;7.20;99.90;;;;;;5078703;28;20048;-70
2023/05/01 01:48:45;;;;;;;17.45;9.38;;;7.20;99.90;;;;;;5089218;28;20540;-70
2023/05/01 01:51:18;;;;;;;18.83;8.63;;;7.10;99.90;;;;;;5085851;28;20048;-70
2023/05/01 01:53:49;;;;;;;20.45;11.10;;;7.10;99.90;;;;;;5084290;28;20066;-70
2023/05/01 01:56:18;;;;;;;19.23;9.25;;;7.10;99.90;;;;;;5078619;28;20048;-70
2023/05/01 01:58:45;;;;;;;13.50;8.93;;;7.00;99.90;;;;;;5078143;28;20047;-70
2023/05/01 02:01:14;;;;;;;15.90;9.93;;;7.00;99.90;;;;;;5079892;28;20094;-70
2023/05/01 02:03:42;;;;;;;13.18;9.88;;;7.00;99.90;;;;;;5082023;28;20036;-70
2023/05/01 02:06:11;;;;;;;14.18;8.10;;;7.00;99.90;;;;;;5082011;28;20053;-70
2023/05/01 02:08:37;;;;;;;13.40;10.05;;;7.00;99.90;;;;;;5074533;28;20115;-70
2023/05/01 02:11:05;;;;;;;16.58;9.07;;;6.90;99.90;;;;;;5085181;28;20155;-70
2023/05/01 02:13:32;;;;;;;14.07;9.77;;;6.90;99.90;;;;;;5083263;28;20040;-70
2023/05/01 02:15:58;;;;;;;20.48;11.07;;;6.90;99.90;;;;;;5087362;28;20567;-70
2023/05/01 02:18:28;;;;;;;13.40;9.43;;;6.80;99.90;;;;;;5087280;28;20048;-70
2023/05/01 02:20:57;;;;;;;12.20;8.93;;;6.90;99.90;;;;;;5083622;28;20055;-70
2023/05/01 02:23:25;;;;;;;19.05;10.25;;;6.80;99.90;;;;;;5087471;28;20093;-70
2023/05/01 02:25:52;;;;;;;15.70;10.10;;;6.80;99.90;;;;;;5086934;28;20752;-70
2023/05/01 02:28:22;;;;;;;20.88;10.20;;;6.80;99.90;;;;;;5078745;28;20041;-70
2023/05/01 02:30:47;;;;;;;16.63;10.13;;;6.70;99.90;;;;;;5080600;28;20044;-70
2023/05/01 02:33:13;;;;;;;20.10;9.55;;;6.70;99.90;;;;;;5087102;28;20063;-70
2023/05/01 02:35:46;;;;;;;18.50;10.82;;;6.70;99.90;;;;;;5087045;28;20407;-70
2023/05/01 02:38:13;;;;;;;18.30;10.70;;;6.70;99.90;;;;;;5081813;28;20040;-70
2023/05/01 02:40:44;;;;;;;14.20;9.53;;;6.70;99.90;;;;;;5081521;28;20044;-70
2023/05/01 02:43:12;;;;;;;12.88;8.88;;;6.60;99.90;;;;;;5086421;28;20643;-70
2023/05/01 02:45:39;;;;;;;;;;;6.60;99.90;;;;;;5060154;28;20048;-70
2023/05/01 02:48:06;;;;;;;16.55;10.07;;;6.60;99.90;;;;;;5086298;28;19934;-70
2023/05/01 02:50:33;;;;;;;16.17;9.77;;;6.50;99.90;;;;;;5080845;28;20070;-70
2023/05/01 02:53:00;;;;;;;17.98;10.52;;;6.50;99.90;;;;;;5083179;28;20734;-70
2023/05/01 02:55:26;;;;;;;21.77;9.50;;;6.50;99.90;;;;;;5081478;28;20117;-70
2023/05/01 02:57:51;;;;;;;17.88;9.95;;;6.50;99.90;;;;;;5086087;28;20040;-70
2023/05/01 03:00:17;;;;;;;12.77;10.15;;;6.50;99.90;;;;;;5087303;28;20081;-70
2023/05/01 03:02:44;;;;;;;16.45;9.80;;;6.40;99.90;;;;;;5080081;28;20075;-70
2023/05/01 03:05:09;;;;;;;15.73;10.07;;;6.40;99.90;;;;;;5086114;28;20044;-70
2023/05/01 03:07:35;;;;;;;14.40;8.77;;;6.40;99.90;;;;;;5087079;28;20059;-70
2023/05/01 03:10:06;;;;;;;16.13;9.48;;;6.40;99.90;;;;;;5081818;28;20457;-69
2023/05/01 03:12:32;;;;;;;17.40;10.02;;;6.40;99.90;;;;;;5076471;28;20056;-70
2023/05/01 03:14:58;;;;;;;18.83;10.48;;;6.30;99.90;;;;;;5075669;28;20524;-70
2023/05/01 03:17:24;;;;;;;19.63;11.40;;;6.30;99.90;;;;;;5081576;28;20072;-70
2023/05/01 03:19:50;;;;;;;14.57;10.63;;;6.30;99.90;;;;;;5071919;28;20123;-70
2023/05/01 03:22:16;;;;;;;14.15;10.93;;;6.30;99.90;;;;;;5066584;28;20132;-70
2023/05/01 03:24:43;;;;;;;14.55;10.00;;;6.20;99.90;;;;;;5084319;28;20088;-70
2023/05/01 03:27:08;;;;;;;12.60;9.52;;;6.20;99.90;;;;;;5076073;28;20542;-70
2023/05/01 03:29:36;;;;;;;14.43;10.02;;;6.20;99.90;;;;;;5082647;28;20089;-70
2023/05/01 03:32:03;;;;;;;13.95;9.98;;;6.10;99.90;;;;;;5086786;28;20052;-70
2023/05/01 03:34:28;;;;;;;19.52;12.40;;;6.10;99.90;;;;;;5074563;28;20713;-70
2023/05/01 03:36:55;;;;;;;16.73;11.50;;;6.10;99.90;;;;;;5071797;28;20036;-70
2023/05/01 03:39:21;;;;;;;20.30;11.43;;;6.10;99.90;;;;;;5084722;28;20059;-70
2023/05/01 03:41:46;;;;;;;13.80;10.63;;;6.00;99.90;;;;;;5075641;28;20572;-70
2023/05/01 03:44:12;;;;;;;19.98;11.15;;;6.00;99.90;;;;;;5073368;28;20059;-70
2023/05/01 03:46:37;;;;;;;12.63;9.40;;;6.00;99.90;;;;;;5069007;28;20033;-70
2023/05/01 03:49:03;;;;;;;13.15;10.38;;;6.00;99.90;;;;;;5086485;28;21539;-69
2023/05/01 03:51:29;;;;;;;11.77;9.90;;;5.90;99.90;;;;;;5071940;28;20040;-70
2023/05/01 03:53:58;;;;;;;19.27;10.45;;;5.90;99.90;;;;;;5072335;28;20060;-69
2023/05/01 03:56:25;;;;;;;17.73;10.38;;;5.90;99.90;;;;;;5086649;28;20056;-70
2023/05/01 03:58:51;;;;;;;15.80;10.70;;;5.90;99.90;;;;;;5076668;28;20117;-70
2023/05/01 04:01:17;;;;;;;23.58;10.18;;;5.90;99.90;;;;;;5086983;28;20840;-70
2023/05/01 04:03:43;;;;;;;15.25;10.13;;;5.90;99.90;;;;;;5089746;28;20086;-71
2023/05/01 04:06:09;;;;;;;23.45;12.23;;;5.80;99.90;;;;;;5085469;28;20158;-69
2023/05/01 04:08:34;;;;;;;15.18;10.80;;;5.90;99.90;;;;;;5079948;28;20109;-69
2023/05/01 04:11:00;;;;;;;15.60;11.43;;;5.90;99.90;;;;;;5077725;28;20102;-69
2023/05/01 04:13:26;;;;;;;13.48;10.80;;;5.90;99.90;;;;;;5085483;28;20036;-69
2023/05/01 04:15:54;;;;;;;17.80;10.93;;;5.90;99.90;;;;;;5085220;28;20055;-69
2023/05/01 04:18:20;;;;;;;18.27;9.88;;;5.90;99.90;;;;;;5090529;28;20438;-70
2023/05/01 04:20:46;;;;;;;14.20;10.07;;;5.90;99.90;;;;;;5087957;28;20039;-69
2023/05/01 04:23:11;;;;;;;26.63;11.38;;;5.90;99.90;;;;;;5089580;28;20145;-70
2023/05/01 04:25:37;;;;;;;17.83;10.52;;;5.90;99.90;;;;;;5081595;28;20040;-70
2023/05/01 04:28:03;;;;;;;15.35;11.23;;;5.90;99.90;;;;;;5088067;28;20090;-70
2023/05/01 04:30:30;;;;;;;14.95;10.63;;;6.00;99.90;;;;;;5089292;28;20115;-70
2023/05/01 04:32:57;;;;;;;19.55;11.02;;;6.00;99.90;;;;;;5079964;28;20123;-70
2023/05/01 04:35:24;;;;;;;17.55;12.18;;;6.00;99.90;;;;;;5084148;28;20950;-69
2023/05/01 04:37:50;;;;;;;23.02;12.40;;;6.10;99.90;;;;;;5064567;28;20039;-70
2023/05/01 04:40:16;;;;;;;18.02;11.48;;;6.20;99.90;;;;;;5086872;28;20093;-70
2023/05/01 04:42:42;;;;;;;19.08;10.85;;;6.20;99.90;;;;;;5087733;28;20036;-70
2023/05/01 04:45:08;;;;;;;16.63;10.75;;;6.40;99.90;;;;;;5081003;28;20113;-70
2023/05/01 04:47:34;;;;;;;21.70;13.43;;;6.60;99.90;;;;;;5080660;28;20115;-70
2023/05/01 04:50:00;;;;;;;17.80;13.10;;;6.80;99.90;;;;;;5089991;28;20516;-70
2023/05/01 04:52:25;;;;;;;18.95;12.45;;;7.00;99.90;;;;;;5086024;28;20053;-70
2023/05/01 04:54:51;;;;;;;17.67;10.70;;;7.10;99.90;;;;;;5076830;28;20161;-70
2023/05/01 04:57:18;;;;;;;20.92;13.07;;;7.20;99.90;;;;;;5081345;28;20079;-70
2023/05/01 04:59:45;;;;;;;17.95;12.85;;;7.10;99.90;;;;;;5079758;28;20068;-69
2023/05/01 05:02:11;;;;;;;18.35;12.07;;;7.10;99.90;;;;;;5085967;28;20052;-70
2023/05/01 05:04:36;;;;;;;18.73;12.07;;;7.30;99.90;;;;;;5088148;28;20040;-70
2023/05/01 05:07:02;;;;;;;17.90;12.10;;;7.50;99.90;;;;;;5085151;28;20048;-70
2023/05/01 05:09:28;;;;;;;23.25;13.45;;;7.80;99.90;;;;;;5088381;28;20089;-69
2023/05/01 05:11:53;;;;;;;22.60;13.93;;;7.80;99.90;;;;;;5084919;28;20040;-69
2023/05/01 05:14:19;;;;;;;19.40;11.88;;;7.80;99.90;;;;;;5080151;28;20127;-70
2023/05/01 05:16:45;;;;;;;19.67;13.45;;;7.70;99.90;;;;;;5077658;28;20044;-70
2023/05/01 05:19:12;;;;;;;18.30;12.57;;;7.60;99.90;;;;;;5086971;28;20040;-70
2023/05/01 05:21:37;;;;;;;21.05;13.10;;;7.50;99.90;;;;;;5085418;28;20044;-69
2023/05/01 05:24:03;;;;;;;21.40;12.48;;;7.40;99.90;;;;;;5082022;28;20850;-69
2023/05/01 05:26:29;;;;;;;19.58;13.35;;;7.40;99.90;;;;;;5088688;28;20052;-70
2023/05/01 05:28:55;;;;;;;25.98;14.98;;;7.60;99.90;;;;;;5087516;28;20051;-70
2023/05/01 05:31:20;;;;;;;25.48;14.25;;;7.90;99.90;;;;;;5081318;28;20676;-69
2023/05/01 05:33:46;;;;;;;21.27;14.02;;;8.20;99.90;;;;;;5087631;28;20067;-70
2023/05/01 05:36:12;;;;;;;22.52;13.82;;;8.40;99.90;;;;;;5081970;28;20572;-70
2023/05/01 05:38:37;;;;;;;22.58;14.57;;;8.60;99.90;;;;;;5075363;28;20036;-70
2023/05/01 05:41:03;;;;;;;25.15;14.52;;;8.60;99.90;;;;;;5077460;28;20040;-70
2023/05/01 05:43:29;;;;;;;20.25;13.88;;;8.80;99.90;;;;;;5077289;28;20037;-70
2023/05/01 05:45:58;;;;;;;21.90;13.02;;;9.10;99.90;;;;;;5086129;28;20123;-70
2023/05/01 05:48:24;;;;;;;19.98;13.25;;;9.30;99.90;;;;;;5083488;28;20036;-69
2023/05/01 05:50:53;;;;;;;25.02;14.32;;;9.20;99.90;;;;;;5088400;28;20155;-69
2023/05/01 05:53:19;;;;;;;28.27;15.55;;;9.20;99.90;;;;;;5081658;28;20508;-69
2023/05/01 05:55:48;;;;;;;25.65;15.68;;;9.20;99.90;;;;;;5085896;28;20036;-70
2023/05/01 05:58:23;;;;;;;22.75;14.20;;;9.30;99.90;;;;;;5064869;28;20899;-69
2023/05/01 06:00:49;;;;;;;40.10;14.73;;;9.30;99.90;;;;;;5085493;28;20074;-69
2023/05/01 06:03:15;;;;;;;18.33;13.10;;;9.30;99.90;;;;;;5086563;28;20106;-69
2023/05/01 06:05:44;;;;;;;30.25;13.90;;;9.40;99.90;;;;;;5087663;28;20048;-70
2023/05/01 06:08:10;;;;;;;29.80;15.05;;;9.50;99.90;;;;;;5087545;28;20119;-70
2023/05/01 06:10:38;;;;;;;22.65;14.10;;;9.60;99.90;;;;;;5079243;28;20492;-70
2023/05/01 06:13:07;;;;;;;22.20;14.57;;;9.60;99.90;;;;;;5081668;28;20075;-70
2023/05/01 06:15:33;;;;;;;19.10;14.23;;;9.60;99.90;;;;;;5076556;28;20497;-70
2023/05/01 06:17:59;;;;;;;22.25;14.38;;;9.60;99.90;;;;;;5086211;28;20542;-70
2023/05/01 06:20:25;;;;;;;22.27;14.45;;;9.60;99.90;;;;;;5082656;28;20044;-70
2023/05/01 06:22:51;;;;;;;20.65;14.43;;;9.60;99.90;;;;;;5076729;28;20452;-70
2023/05/01 06:25:16;;;;;;;19.60;14.13;;;9.60;99.90;;;;;;5074317;28;20127;-70
2023/05/01 06:27:42;;;;;;;17.88;14.38;;;9.60;99.90;;;;;;5084313;28;20115;-70
2023/05/01 06:30:08;;;;;;;42.25;15.77;;;9.70;99.90;;;;;;5074485;28;20051;-70
2023/05/01 06:32:34;;;;;;;23.92;15.65;;;9.70;99.90;;;;;;5076194;28;20058;-70
2023/05/01 06:35:00;;;;;;;25.52;16.98;;;9.70;99.90;;;;;;5078660;28;20110;-70
2023/05/01 06:37:26;;;;;;;22.45;15.27;;;9.80;99.90;;;;;;5086992;28;20040;-70
2023/05/01 06:39:52;;;;;;;25.02;14.98;;;9.90;99.90;;;;;;5076367;28;20048;-70
2023/05/01 06:42:20;;;;;;;22.08;15.25;;;10.00;99.90;;;;;;5087165;28;20542;-70
2023/05/01 06:44:45;;;;;;;31.88;17.30;;;10.20;99.90;;;;;;5081794;28;20053;-70
2023/05/01 06:47:11;;;;;;;27.95;16.95;;;10.30;99.90;;;;;;5076901;28;20085;-71
2023/05/01 06:49:37;;;;;;;24.38;17.52;;;10.40;99.90;;;;;;5080919;28;20059;-70
2023/05/01 06:52:02;;;;;;;26.75;16.10;;;10.60;99.90;;;;;;5073044;28;20076;-70
2023/05/01 06:54:28;;;;;;;30.25;15.75;;;10.90;99.90;;;;;;5080210;28;20391;-71
2023/05/01 06:56:54;;;;;;;25.38;15.82;;;11.00;99.90;;;;;;5076334;28;20477;-70
2023/05/01 06:59:19;;;;;;;22.13;14.65;;;11.10;99.90;;;;;;5081331;28;20425;-70
2023/05/01 07:01:45;;;;;;;20.70;15.35;;;11.20;99.90;;;;;;5086635;28;20576;-70
2023/05/01 07:04:12;;;;;;;21.35;14.60;;;11.30;99.90;;;;;;5072082;28;20040;-70
2023/05/01 07:06:38;;;;;;;19.25;13.30;;;11.40;99.90;;;;;;5080578;28;20582;-70
2023/05/01 07:09:04;;;;;;;21.17;14.63;;;11.60;99.90;;;;;;5077142;28;20775;-71
2023/05/01 07:11:30;;;;;;;28.02;14.75;;;11.80;99.90;;;;;;5077641;28;20127;-71
2023/05/01 07:13:56;;;;;;;21.35;15.57;;;12.00;99.90;;;;;;5081178;28;20458;-70
2023/05/01 07:16:22;;;;;;;17.70;13.82;;;12.20;99.90;;;;;;5078853;28;20090;-73
2023/05/01 07:18:48;;;;;;;29.00;14.25;;;12.30;99.90;;;;;;5073267;28;20041;-70
2023/05/01 07:21:13;;;;;;;19.05;14.30;;;12.50;99.90;;;;;;5068282;28;20048;-70
2023/05/01 07:23:40;;;;;;;22.80;13.38;;;12.60;99.90;;;;;;5075033;28;20097;-73
2023/05/01 07:26:06;;;;;;;21.38;12.70;;;12.70;99.90;;;;;;5074581;28;20051;-74
2023/05/01 07:28:32;;;;;;;16.77;12.07;;;12.90;99.90;;;;;;5084644;28;20048;-71
2023/05/01 07:30:57;;;;;;;21.50;13.07;;;13.10;99.90;;;;;;5088486;28;20086;-71
2023/05/01 07:33:26;;;;;;;22.73;12.40;;;13.30;99.90;;;;;;5070756;28;20044;-71
2023/05/01 07:35:52;;;;;;;18.85;12.05;;;13.50;99.90;;;;;;5089268;28;20781;-71
2023/05/01 07:38:18;;;;;;;23.30;13.52;;;13.60;99.90;;;;;;5090305;28;20109;-71
2023/05/01 07:40:43;;;;;;;31.90;13.75;;;13.60;99.90;;;;;;5090853;28;20036;-72
2023/05/01 07:43:10;;;;;;;25.35;13.45;;;13.60;99.90;;;;;;5088582;28;20040;-72
2023/05/01 07:45:37;;;;;;;23.95;13.90;;;13.60;99.90;;;;;;5082096;28;20048;-71
2023/05/01 07:48:03;;;;;;;26.10;13.25;;;13.70;99.90;;;;;;5089778;28;20064;-71
2023/05/01 07:50:29;;;;;;;25.75;14.23;;;13.80;99.90;;;;;;5082211;28;20071;-71
2023/05/01 07:52:56;;;;;;;27.60;12.75;;;14.00;99.90;;;;;;5084121;28;21076;-71
2023/05/01 07:55:22;;;;;;;19.13;11.93;;;14.10;99.90;;;;;;5087450;28;20048;-72
2023/05/01 07:57:48;;;;;;;29.30;13.80;;;14.00;99.90;;;;;;5081466;28;20142;-71
2023/05/01 08:00:14;;;;;;;22.02;13.00;;;14.00;99.90;;;;;;5089279;28;20123;-71
2023/05/01 08:02:40;;;;;;;19.83;11.73;;;14.10;99.90;;;;;;5115815;27;20039;-71
2023/05/01 08:05:06;;;;;;;26.33;12.02;;;14.20;99.90;;;;;;5085722;28;20413;-71
2023/05/01 08:07:32;;;;;;;17.90;11.77;;;14.20;99.90;;;;;;5113145;27;20048;-71
2023/05/01 08:10:01;;;;;;;16.00;11.65;;;14.30;99.90;;;;;;5089452;28;20047;-72
2023/05/01 08:12:28;;;;;;;29.05;14.25;;;14.50;99.90;;;;;;5087895;28;20123;-71
2023/05/01 08:14:54;;;;;;;18.43;13.17;;;14.60;99.90;;;;;;5085611;28;20060;-72
2023/05/01 08:17:19;;;;;;;22.70;14.02;;;14.80;99.90;;;;;;5079401;28;20141;-71
2023/05/01 08:19:45;;;;;;;26.20;12.65;;;15.00;98.60;;;;;;5084307;28;20036;-72
2023/05/01 08:22:13;;;;;;;19.63;11.32;;;15.10;97.20;;;;;;5075200;28;20397;-72
2023/05/01 08:24:39;;;;;;;16.88;12.55;;;15.30;97.30;;;;;;5088439;28;20036;-71
2023/05/01 08:27:05;;;;;;;17.55;12.07;;;15.40;95.50;;;;;;5084138;28;20421;-72
2023/05/01 08:29:31;;;;;;;21.75;14.00;;;15.50;94.20;;;;;;5080419;28;20055;-71
2023/05/01 08:31:57;;;;;;;16.08;12.82;;;15.60;94.80;;;;;;5088520;28;20044;-70
2023/05/01 08:34:23;;;;;;;14.52;10.70;;;15.60;92.20;;;;;;5085246;28;20177;-71
2023/05/01 08:36:49;;;;;;;23.63;12.32;;;15.50;91.30;;;;;;5087041;28;20491;-71
2023/05/01 08:39:15;;;;;;;18.40;12.30;;;15.40;90.40;;;;;;5083180;28;20040;-71
2023/05/01 08:41:44;;;;;;;24.30;14.35;;;15.40;91.00;;;;;;5072398;28;20042;-72
2023/05/01 08:44:11;;;;;;;20.00;12.85;;;15.50;91.30;;;;;;5086052;28;20500;-71
2023/05/01 08:47:08;;;;;;;23.83;11.35;;;15.60;91.00;;;;;;5086052;28;20084;-72
2023/05/01 08:49:36;;;;;;;25.65;10.95;;;15.60;90.40;;;;;;5082202;28;20546;-71
2023/05/01 08:52:04;;;;;;;19.15;10.88;;;15.70;87.90;;;;;;5082737;28;20166;-72
2023/05/01 08:54:31;;;;;;;17.13;9.63;;;15.80;88.20;;;;;;5084475;28;20048;-70
2023/05/01 08:57:02;;;;;;;13.43;10.05;;;16.10;86.90;;;;;;5077243;28;20093;-72
2023/05/01 08:59:39;;;;;;;20.98;11.88;;;16.50;85.90;;;;;;5082336;28;20069;-71
2023/05/01 09:02:07;;;;;;;11.75;9.00;;;16.80;84.60;;;;;;5082339;28;20669;-71
2023/05/01 09:04:37;;;;;;;14.23;8.85;;;17.10;81.70;;;;;;5088708;28;20163;-72
2023/05/01 09:07:03;;;;;;;13.43;10.40;;;17.40;82.60;;;;;;5085883;28;20052;-72
2023/05/01 09:09:30;;;;;;;26.45;12.40;;;17.60;82.70;;;;;;5088664;28;20036;-72
2023/05/01 09:12:24;;;;;;;16.83;10.90;;;17.70;80.70;;;;;;5077929;28;20532;-72
2023/05/01 09:14:51;;;;;;;18.52;12.13;;;17.70;78.10;;;;;;5076959;28;20135;-72
2023/05/01 09:17:17;;;;;;;33.97;11.50;;;17.70;76.20;;;;;;5081405;28;20083;-71
2023/05/01 09:19:43;;;;;;;17.17;11.13;;;17.40;74.70;;;;;;5078068;28;20080;-72
2023/05/01 09:22:08;;;;;;;14.68;9.90;;;17.20;73.90;;;;;;5084407;28;20459;-71
2023/05/01 09:24:34;;;;;;;16.25;10.68;;;17.20;75.70;;;;;;5088326;28;20064;-72
2023/05/01 09:27:00;;;;;;;21.23;11.50;;;17.40;74.80;;;;;;5087674;28;20644;-72
2023/05/01 09:29:44;;;;;;;18.92;10.30;;;17.50;74.50;;;;;;5078469;28;20044;-72
2023/05/01 09:32:20;;;;;;;21.05;10.30;;;17.60;73.70;;;;;;5080234;28;20037;-71
2023/05/01 09:34:48;;;;;;;21.33;10.95;;;17.60;75.20;;;;;;5080201;28;20089;-71
2023/05/01 09:37:29;;;;;;;12.95;10.13;;;17.80;74.60;;;;;;5085634;28;20062;-71
2023/05/01 09:40:12;;;;;;;16.40;9.32;;;18.20;74.60;;;;;;5087306;28;20040;-71
2023/05/01 09:42:50;;;;;;;16.55;10.18;;;18.30;67.30;;;;;;5088196;28;20044;-71
2023/05/01 09:45:16;;;;;;;13.43;9.43;;;18.20;68.70;;;;;;5082824;28;20050;-71
2023/05/01 09:47:43;;;;;;;17.17;10.07;;;18.30;69.70;;;;;;5081362;28;20056;-71
2023/05/01 09:50:10;;;;;;;19.88;10.93;;;18.60;69.90;;;;;;5083219;28;20047;-71
2023/05/01 09:52:35;;;;;;;9.03;7.80;;;18.70;68.60;;;;;;5089044;28;20871;-72
2023/05/01 09:55:15;;;;;;;26.80;8.30;;;18.60;66.70;;;;;;5081451;28;20123;-71
2023/05/01 09:57:42;;;;;;;12.82;8.90;;;18.70;60.90;;;;;;5079900;28;20075;-71
2023/05/01 10:00:09;;;;;;;14.88;8.63;;;18.50;64.50;;;;;;5087194;28;20047;-72
2023/05/01 10:02:35;;;;;;;19.53;9.13;;;18.50;65.10;;;;;;5080820;28;20047;-71
2023/05/01 10:05:02;;;;;;;11.77;7.13;;;18.60;65.00;;;;;;5085524;28;20422;-71
2023/05/01 10:07:28;;;;;;;18.52;7.82;;;18.50;62.10;;;;;;5080736;28;20052;-71
2023/05/01 10:09:54;;;;;;;12.05;7.38;;;18.40;61.50;;;;;;5085678;28;20043;-71
2023/05/01 10:12:28;;;;;;;12.23;7.93;;;18.40;60.70;;;;;;5080787;28;20419;-71
2023/05/01 10:14:56;;;;;;;13.43;7.45;;;18.50;61.60;;;;;;5081849;28;20079;-71
2023/05/01 10:17:22;;;;;;;;;;;18.60;61.20;;;;;;5084974;28;20169;-71
2023/05/01 10:19:50;;;;;;;15.93;7.55;;;18.50;59.10;;;;;;5082729;28;19959;-70
2023/05/01 10:22:16;;;;;;;13.15;7.10;;;18.50;62.60;;;;;;5076713;28;20486;-70
2023/05/01 10:24:44;;;;;;;12.52;6.07;;;18.80;63.60;;;;;;5082597;28;20040;-70
2023/05/01 10:27:10;;;;;;;;;;;19.30;63.90;;;;;;5072195;28;20086;-71
2023/05/01 10:29:38;;;;;;;11.15;7.40;;;19.80;63.70;;;;;;5085345;28;19920;-71
2023/05/01 10:32:06;;;;;;;19.60;6.70;;;20.20;63.60;;;;;;5076137;28;20048;-69
2023/05/01 10:34:39;;;;;;;10.95;6.32;;;20.50;60.60;;;;;;5076768;28;20390;-68
2023/05/01 10:37:18;;;;;;;9.55;5.70;;;20.70;60.10;;;;;;5088991;28;20040;-68
2023/05/01 10:39:44;;;;;;;10.82;6.75;;;20.90;57.50;;;;;;5082652;28;20048;-68
2023/05/01 10:42:13;;;;;;;12.35;6.35;;;21.00;58.70;;;;;;5080663;28;20040;-68
2023/05/01 10:44:40;;;;;;;12.85;6.70;;;20.70;56.50;;;;;;5078033;28;20048;-67
2023/05/01 10:47:26;;;;;;;10.25;5.88;;;20.50;57.80;;;;;;5079832;28;20043;-67
2023/05/01 10:50:06;;;;;;;7.97;6.38;;;20.30;59.00;;;;;;5068087;28;20117;-67
2023/05/01 10:53:09;;;;;;;9.45;5.68;;;20.40;58.40;;;;;;5081272;28;20054;-68
2023/05/01 10:55:36;;;;;;;6.82;5.57;;;20.60;59.60;;;;;;5081433;28;20602;-67
2023/05/01 10:58:02;;;;;;;15.75;6.97;;;20.90;60.50;;;;;;5084435;28;20047;-67
2023/05/01 11:00:28;;;;;;;12.30;6.28;;;21.10;59.20;;;;;;5084555;28;20055;-67
2023/05/01 11:03:29;;;;;;;10.27;6.57;;;21.30;58.80;;;;;;5085862;28;20036;-68
2023/05/01 11:06:03;;;;;;;11.55;7.13;;;21.40;57.30;;;;;;5024199;28;20235;-68
2023/05/01 11:08:37;;;;;;;8.10;5.65;;;21.40;55.70;;;;;;5074965;28;20048;-68
2023/05/01 11:11:21;;;;;;;17.10;6.25;;;21.30;56.90;;;;;;5075832;28;20312;-69
2023/05/01 11:14:04;;;;;;;9.10;7.20;;;21.50;57.30;;;;;;5079922;28;20083;-68
2023/05/01 11:16:42;;;;;;;15.32;8.60;;;21.60;54.60;;;;;;5082411;28;20048;-68
2023/05/01 11:19:20;;;;;;;13.40;7.55;;;21.30;54.30;;;;;;5079423;28;20040;-68
2023/05/01 11:21:46;;;;;;;11.70;8.07;;;20.90;55.10;;;;;;5077282;28;20036;-68
2023/05/01 11:24:12;;;;;;;21.38;9.63;;;20.80;55.90;;;;;;5075405;28;20048;-68
2023/05/01 11:26:39;;;;;;;13.93;8.25;;;20.60;56.60;;;;;;5070996;28;20032;-70
2023/05/01 11:29:06;;;;;;;12.23;8.50;;;20.40;56.90;;;;;;5074141;28;20582;-69
2023/05/01 11:31:32;;;;;;;9.50;7.05;;;20.10;56.20;;;;;;5085096;28;20412;-69
2023/05/01 11:33:58;;;;;;;14.50;9.10;;;20.00;57.10;;;;;;5082657;28;20036;-68
2023/05/01 11:36:25;;;;;;;9.60;6.43;;;20.10;57.80;;;;;;5082511;28;20526;-69
2023/05/01 11:38:53;;;;;;;14.07;5.80;;;20.30;58.30;;;;;;5082206;28;20040;-69
2023/05/01 11:41:22;;;;;;;7.30;4.90;;;20.60;59.00;;;;;;5083297;28;20282;-69
2023/05/01 11:43:52;;;;;;;13.25;6.50;;;21.10;60.00;;;;;;5086096;28;20036;-69
2023/05/01 11:46:27;;;;;;;7.93;6.43;;;21.40;56.10;;;;;;5071872;28;20052;-69
2023/05/01 11:48:55;;;;;;;13.98;4.85;;;21.30;55.20;;;;;;5073350;28;20076;-69
2023/05/01 11:51:21;;;;;;;6.80;4.78;;;21.50;57.90;;;;;;5076671;28;20063;-69
2023/05/01 11:54:05;;;;;;;8.38;5.20;;;21.80;57.30;;;;;;5079593;28;20059;-69
2023/05/01 11:56:33;;;;;;;7.13;4.80;;;22.20;58.00;;;;;;5077246;28;20309;-69
2023/05/01 11:59:14;;;;;;;9.35;5.03;;;22.50;57.10;;;;;;5083219;28;20067;-69
2023/05/01 12:01:42;;;;;;;6.32;3.90;;;22.80;56.90;;;;;;5085638;28;20083;-70
2023/05/01 12:04:09;;;;;;;7.60;4.63;;;22.90;55.60;;;;;;5085333;28;20063;-70
2023/05/01 12:06:42;;;;;;;6.88;4.80;;;22.90;55.10;;;;;;5072356;28;20056;-70
2023/05/01 12:09:17;;;;;;;3.38;3.08;;;22.90;53.60;;;;;;5083627;28;20044;-70
2023/05/01 12:11:44;;;;;;;5.10;4.28;;;22.70;54.50;;;;;;5087186;28;20044;-70
2023/05/01 12:14:11;;;;;;;9.10;4.78;;;22.60;54.50;;;;;;5085555;28;20538;-70
2023/05/01 12:16:39;;;;;;;7.35;4.38;;;22.70;54.00;;;;;;5090335;28;20133;-68
2023/05/01 12:19:04;;;;;;;;;;;22.70;54.30;;;;;;5095411;28;20048;-68
2023/05/01 12:21:30;;;;;;;9.43;3.95;;;22.70;56.60;;;;;;5084137;28;19943;-70
2023/05/01 12:24:06;;;;;;;3.60;3.25;;;22.70;55.80;;;;;;5089101;28;20040;-69
2023/05/01 12:26:32;;;;;;;6.03;3.78;;;22.60;55.50;;;;;;5090310;28;20085;-69
2023/05/01 12:29:06;;;;;;;6.22;3.65;;;22.60;55.40;;;;;;5084758;28;20438;-69
2023/05/01 12:31:32;;;;;;;5.90;4.35;;;22.60;54.30;;;;;;5088938;28;20071;-69
2023/05/01 12:34:06;;;;;;;5.05;3.13;;;22.40;55.30;;;;;;5084878;28;20571;-69
2023/05/01 12:36:35;;;;;;;4.50;3.10;;;22.20;52.70;;;;;;5088688;28;20055;-69
2023/05/01 12:39:08;;;;;;;5.82;3.83;;;22.10;55.00;;;;;;5088921;28;20504;-69
2023/05/01 12:41:42;;;;;;;4.75;3.55;;;22.10;54.10;;;;;;5085327;28;20048;-69
2023/05/01 12:44:19;;;;;;;3.65;2.67;;;22.00;54.90;;;;;;5089216;28;20080;-69